Crater Lake National Park, OR

3:05 PM PDT on October 25, 2014 (GMT -0700)
Klamath Agency on Wood River Canal | Change Station
CLOSE
Current Station
Personal Weather Station
Location: Chiloquin, OR
Elevation: 4170 ft
Nearby Weather Stations

Elev 4170 ft 42.58 °N, 121.93 °W | Updated 5 minutes ago

Clear
Clear
54.9 °F
Feels Like 54.9 °F
N
9.0
Wind Variable Wind from SW
Gusts 16.0 mph

Today
High -- | Low -- °F
--% Chance of Precip.
Yesterday
High -- | Low -- °F
Precip. -- in
7:32 AM 6:09 PM
Waxing Crescent, 4% visible
Pressure 29.67 in
Visibility 10.0 miles
Clouds Scattered Clouds 4000 ft
Mostly Cloudy 6000 ft
Dew Point 43 °F
Humidity 64%
Rainfall 0.00 in
Snow Depth 0 in , 0 in
UV 2 out of 12
Pollen .40 out of 12
Air Quality Not available.
Flu Activity Sporadic
METAR KLMT 252153Z 18031G41KT 10SM SCT040 BKN060 13/05 A2974 RMK AO2 PK WND 19042/2140 SLP047 T01280050

More Conditions Fewer Conditions

Pressure 29.67 in
Visibility 10.0 miles
Clouds Scattered Clouds 4000 ft
Mostly Cloudy 6000 ft
Dew Point 43 °F
Humidity 64%
Rainfall 0.00 in
Snow Depth 0 in , 0 in
UV 2 out of 12
Pollen .40 out of 12
Air Quality Not available.
Flu Activity Sporadic
METAR KLMT 252153Z 18031G41KT 10SM SCT040 BKN060 13/05 A2974 RMK AO2 PK WND 19042/2140 SLP047 T01280050

More Conditions Fewer Conditions

10-Day Weather Forecast

Almanac

Astronomy

Oct. 25, 2014 Rise Set
Actual Time 7:32 AM PDT 6:09 PM PDT
Civil Twilight 7:03 AM PDT 6:38 PM PDT
Nautical Twilight 6:30 AM PDT 7:11 PM PDT
Astronomical Twilight 5:58 AM PDT 7:44 PM PDT
Moon 9:18 AM PDT 7:34 PM PDT
Length of Visible Light 11h 34m
Length of Day
10h 37m
Tomorrow will be 2m 38s shorter.
Waxing Crescent, 4% of the Moon is Illuminated
Today
Waxing Crescent
Oct 30
First Quarter
Nov 6
Full
Nov 14
Last Quarter
Nov 22
New

Today's Extremes

State Highs State Lows

Community

WunderPhotos

Upload Photos

1,765,009 photos uploaded!

Nearby

Snow Depth

Station Depth Elevation
Sevenmile Marsh 0 in 6200 ft
Cold Springs Camp 0 in 6100 ft
Billie Creek Divide 0 in 5300 ft
Annie Springs 0 in 6020 ft
Fish Lake 0 in 4665 ft

Earthquake Activity

City Distance Mag. Time & Date
No recent earthquake activity has been reported nearby.
Minimum magnitude displayed is 2.5.

Coastal Water Temperatures

Place Temperature
No Stations Reporting

Nearby Weather Stations